Latest Coastal Weather Observations for Red Rocks Point

IDW60701

Issued at 7:23 am WST Thursday 27 April 2017 (issued every 10 minutes, with the page automatically refreshed every 10 minutes)

About coastal observations | Map of coastal stations | Coastal observations for WA | Marine services | Other Formats
Station Details ID: 011053 Name: RED ROCKS POINT Lat: -32.20 Lon: 127.53 Height: 3.1 m
Data from the previous 72 hours. | See also: Recent months at Red Rocks Point
Date/Time
WST
Temp
°C
Wind Pressure Rain since
9am
mm
Weather Cloud Vis
km
Sea
Height
m
Swell
Dir  Spd
kts
Gust
kts
hPa Trend Height
m
Period
s
Dir
27/07:00am 12.5 NW 7 9 1030.7 - 0.0 - - - - - - -
27/06:30am 9.8 NNW 9 10 1030.5 - 0.0 - - - - - - -
27/06:00am 9.9 NNW 9 10 1030.3 - 0.0 - - - - - - -
27/05:30am 9.9 NNW 8 9 1030.2 - 0.0 - - - - - - -
27/05:00am 9.7 NNW 8 9 1030.1 - 0.0 - - - - - - -
27/04:30am 10.2 NNW 8 8 1029.9 - 0.0 - - - - - - -
27/04:00am 10.2 NNW 8 9 1029.8 - 0.0 - - - - - - -
27/03:30am 9.7 NNW 9 10 1029.6 - 0.0 - - - - - - -
27/03:00am 10.2 NNW 8 9 1029.6 - 0.0 - - - - - - -
27/02:30am 10.3 NNW 8 10 1029.5 - 0.0 - - - - - - -
27/02:00am 10.6 NNW 9 10 1029.5 - 0.0 - - - - - - -
27/01:30am 10.3 NW 8 9 1029.4 - 0.0 - - - - - - -
27/01:00am 10.1 NNW 9 10 1029.3 - 0.0 - - - - - - -
27/12:30am 9.6 NNW 9 10 1029.1 - 0.0 - - - - - - -
27/12:00am 11.1 N 7 9 1029.0 - 0.0 - - - - - - -
 
Date/Time
WST
Temp
°C
Wind Pressure Rain since
9am
mm
Weather Cloud Vis
km
Sea
Height
m
Swell
Dir  Spd
kts
Gust
kts
hPa Trend Height
m
Period
s
Dir
26/11:30pm 16.0 ESE 7 9 1028.9 - 0.0 - - - - - - -
26/11:00pm 16.1 ESE 6 8 1028.9 - 0.0 - - - - - - -
26/10:30pm 16.2 SE 8 11 1028.9 - 0.0 - - - - - - -
26/10:00pm 16.3 SSE 10 13 1028.9 - 0.0 - - - - - - -
26/09:30pm 16.3 SE 9 12 1028.9 - 0.0 - - - - - - -
26/09:00pm 16.2 SSE 10 13 1029.0 - 0.0 - - - - - - -
26/08:30pm 16.2 SSE 8 10 1029.1 - 0.0 - - - - - - -
26/08:00pm 16.2 SSE 9 12 1029.1 - 0.0 - - - - - - -
26/07:30pm 16.4 SE 7 9 1028.9 - 0.0 - - - - - - -
26/07:00pm 16.3 SE 8 10 1028.8 - 0.0 - - - - - - -
26/06:30pm 16.3 SSE 9 12 1028.3 - 0.0 - - - - - - -
26/06:00pm 16.4 SSE 9 13 1028.0 - 0.0 - - - - - - -
26/05:30pm 16.2 S 10 12 1027.8 - 0.0 - - - - - - -
26/05:00pm 16.5 SSE 11 15 1027.7 - 0.0 - - - - - - -
26/04:30pm 17.0 SSE 11 14 1027.6 - 0.0 - - - - - - -
26/04:00pm 17.4 S 12 15 1027.7 - 0.0 - - - - - - -
26/03:30pm 17.9 S 13 15 1027.5 - 0.0 - - - - - - -
26/03:00pm 18.2 SSE 13 17 1027.4 - 0.0 - - - - - - -
26/02:30pm 18.9 S 11 14 1027.5 - 0.0 - - - - - - -
26/02:00pm 18.8 SSE 9 11 1027.3 - 0.0 - - - - - - -
26/01:30pm 19.2 SSE 7 9 1027.4 - 0.0 - - - - - - -
26/01:00pm 18.8 SSE 6 7 1027.5 - 0.0 - - - - - - -
26/12:30pm 19.3 ESE 5 6 1027.7 - 0.0 - - - - - - -
26/12:00pm 19.1 SE 5 6 1027.9 - 0.0 - - - - - - -
26/11:30am 18.9 SSE 6 8 1028.2 - 0.0 - - - - - - -
26/11:00am 18.8 S 7 9 1028.6 - 0.0 - - - - - - -
26/10:30am 19.1 S 5 7 1029.0 - 0.0 - - - - - - -
26/10:00am 18.9 SSE 5 7 1029.0 - 0.0 - - - - - - -
26/09:30am 18.3 SSW 7 11 1029.3 - 0.0 - - - - - - -
26/09:00am 18.2 S 7 10 1029.3 - 0.2 - - - - - - -
26/08:30am 17.6 S 10 13 1029.3 - 0.2 - - - - - - -
26/08:00am 17.1 SSW 7 10 1029.1 - 0.2 - - - - - - -
26/07:30am 15.9 SSW 7 9 1028.7 - 0.2 - - - - - - -
26/07:00am 16.3 S 8 11 1028.2 - 0.2 - - - - - - -
26/06:30am 16.4 SSE 9 12 1027.6 - 0.2 - - - - - - -
26/06:00am 16.3 S 12 16 1027.3 - 0.2 - - - - - - -
26/05:30am 16.0 S 11 16 1027.3 - 0.2 - - - - - - -
26/05:00am 16.1 S 15 19 1027.1 - 0.2 - - - - - - -
26/04:30am 16.2 S 14 16 1027.1 - 0.2 - - - - - - -
26/04:00am 15.9 S 11 14 1026.9 - 0.2 - - - - - - -
26/03:30am 15.7 SSW 10 14 1026.7 - 0.2 - - - - - - -
26/03:00am 15.9 S 13 16 1026.5 - 0.2 - - - - - - -
26/02:30am 16.1 S 13 17 1026.4 - 0.2 - - - - - - -
26/02:00am 16.0 S 14 18 1026.3 - 0.2 - - - - - - -
26/01:30am 16.5 S 13 17 1026.1 - 0.2 - - - - - - -
26/01:00am 16.4 S 12 16 1026.2 - 0.2 - - - - - - -
26/12:30am 16.7 S 14 17 1026.2 - 0.2 - - - - - - -
26/12:00am 16.3 SSW 11 15 1026.1 - 0.2 - - - - - - -
 
Date/Time
WST
Temp
°C
Wind Pressure Rain since
9am
mm
Weather Cloud Vis
km
Sea
Height
m
Swell
Dir  Spd
kts
Gust
kts
hPa Trend Height
m
Period
s
Dir
25/11:30pm 16.4 SSW 12 16 1026.1 - 0.2 - - - - - - -
25/11:00pm 16.5 S 14 17 1026.0 - 0.2 - - - - - - -
25/10:30pm 17.3 S 14 16 1025.8 - 0.2 - - - - - - -
25/10:00pm 16.8 S 14 17 1025.8 - 0.2 - - - - - - -
25/09:30pm 16.9 S 15 17 1025.6 - 0.2 - - - - - - -
25/09:00pm 16.5 S 11 18 1025.4 - 0.2 Recent precip. - - - - - -
25/08:30pm 17.5 S 14 18 1025.3 - 0.0 - - - - - - -
25/08:00pm 17.5 S 15 17 1025.2 - 0.0 - - - - - - -
25/07:30pm 17.3 S 17 19 1025.0 - 0.0 - - - - - - -
25/07:00pm 17.0 SSW 11 13 1024.9 - 0.0 - - - - - - -
25/06:31pm 17.8 SSW 15 25 1024.7 - 0.0 - - - - - - -
25/06:30pm 17.7 SSW 14 24 1024.6 - 0.0 - - - - - - -
25/06:00pm 17.6 SSW 11 16 1024.2 - 0.0 - - - - - - -
25/05:30pm 17.5 SW 9 15 1023.7 - 0.0 - - - - - - -
25/05:00pm 17.5 SSW 10 15 1023.6 - 0.0 - - - - - - -
25/04:30pm 17.9 SSW 11 16 1023.2 - 0.0 - - - - - - -
25/04:00pm 18.5 SW 11 16 1022.9 - 0.0 - - - - - - -
25/03:30pm 18.5 SW 12 18 1022.8 - 0.0 - - - - - - -
25/03:00pm 18.7 SW 13 18 1022.5 - 0.0 - - - - - - -
25/02:30pm 18.9 SW 12 18 1022.3 - 0.0 - - - - - - -
25/02:00pm 19.1 SW 13 18 1022.1 - 0.0 - - - - - - -
25/01:30pm 19.5 WSW 12 19 1022.0 - 0.0 - - - - - - -
25/01:00pm 20.7 WSW 14 22 1022.0 - 0.0 - - - - - - -
25/12:30pm 20.0 WSW 11 17 1022.1 - 0.0 - - - - - - -
25/12:00pm 18.5 W 14 22 1022.2 - 0.0 - - - - - - -
25/11:30am 20.1 WSW 13 20 1022.5 - 0.0 - - - - - - -
25/11:00am 20.3 WSW 12 19 1022.8 - 0.0 - - - - - - -
25/10:30am 19.0 WSW 10 14 1023.1 - 0.0 - - - - - - -
25/10:00am 18.7 WSW 8 12 1023.1 - 0.0 - - - - - - -
25/09:30am 19.3 W 9 13 1023.0 - 0.0 - - - - - - -
25/09:00am 18.1 WNW 10 15 1022.9 - 0.2 - - - - - - -
25/08:30am 17.6 WNW 8 11 1022.7 - 0.2 - - - - - - -
25/08:00am 15.5 WNW 8 11 1022.6 - 0.2 - - - - - - -
25/07:30am 12.9 NW 9 11 1022.4 - 0.2 - - - - - - -
25/07:00am 11.6 NW 8 10 1021.8 - 0.2 - - - - - - -
25/06:30am 10.0 NW 9 11 1021.6 - 0.2 - - - - - - -
25/06:00am 9.4 NW 8 10 1021.4 - 0.2 - - - - - - -
25/05:30am 9.4 NW 9 11 1021.0 - 0.2 - - - - - - -
25/05:00am 9.7 NW 9 11 1020.8 - 0.2 - - - - - - -
25/04:30am 9.5 NW 9 11 1020.8 - 0.2 - - - - - - -
25/04:00am 9.5 NW 10 13 1020.6 - 0.2 - - - - - - -
25/03:30am 9.2 NW 10 11 1020.5 - 0.2 - - - - - - -
25/03:00am 9.1 NW 10 11 1020.5 - 0.2 - - - - - - -
25/02:30am 9.3 NW 10 11 1020.5 - 0.2 - - - - - - -
25/02:00am 9.1 NW 10 12 1020.3 - 0.2 - - - - - - -
25/01:30am 9.2 NW 11 12 1020.6 - 0.2 - - - - - - -
25/01:00am 10.0 NW 10 11 1020.6 - 0.2 - - - - - - -
25/12:30am 10.0 WNW 10 11 1020.6 - 0.2 - - - - - - -
25/12:00am 10.5 WNW 9 11 1020.7 - 0.2 - - - - - - -
 
Date/Time
WST
Temp
°C
Wind Pressure Rain since
9am
mm
Weather Cloud Vis
km
Sea
Height
m
Swell
Dir  Spd
kts
Gust
kts
hPa Trend Height
m
Period
s
Dir
24/11:30pm 11.3 W 7 8 1020.9 - 0.2 - - - - - - -
24/11:00pm 13.0 W 5 6 1021.1 - 0.2 - - - - - - -
24/10:30pm 15.1 SW 5 6 1021.3 - 0.2 - - - - - - -
24/10:00pm 16.4 SSW 8 11 1021.5 - 0.2 - - - - - - -
24/09:30pm 16.5 SSW 9 13 1021.5 - 0.2 - - - - - - -
24/09:00pm 16.7 S 10 12 1021.6 - 0.2 - - - - - - -
24/08:30pm 16.8 S 11 13 1021.6 - 0.2 - - - - - - -
24/08:00pm 17.1 S 11 14 1021.4 - 0.2 - - - - - - -
24/07:30pm 17.1 SSW 10 14 1021.3 - 0.2 - - - - - - -
24/07:00pm 16.7 SSW 10 14 1021.1 - 0.2 - - - - - - -
24/06:30pm 16.7 S 10 14 1020.9 - 0.2 - - - - - - -
24/06:00pm 17.1 S 12 15 1020.5 - 0.2 - - - - - - -
24/05:30pm 17.3 S 12 15 1020.2 - 0.2 - - - - - - -
24/05:00pm 16.9 SSW 12 14 1020.0 - 0.2 - - - - - - -
24/04:30pm 17.4 SSW 12 15 1019.9 - 0.2 - - - - - - -
24/04:00pm 18.1 SSW 12 17 1020.0 - 0.2 - - - - - - -
24/03:30pm 18.8 SSW 12 17 1019.8 - 0.2 - - - - - - -
24/03:00pm 19.2 SSW 13 17 1019.8 - 0.2 - - - - - - -
24/02:30pm 19.5 SSW 12 16 1019.6 - 0.2 - - - - - - -
24/02:00pm 19.8 SSW 11 17 1019.4 - 0.2 - - - - - - -
24/01:30pm 20.1 SSW 12 16 1019.3 - 0.2 - - - - - - -
24/01:00pm 20.2 SSW 12 16 1019.3 - 0.2 - - - - - - -
24/12:30pm 19.9 S 13 17 1019.4 - 0.2 - - - - - - -
24/12:00pm 19.8 S 15 17 1019.6 - 0.2 Recent precip. - - - - - -
24/11:30am 19.3 S 14 17 1020.1 - 0.2 - - - - - - -
24/11:00am 19.4 SSW 12 17 1020.2 - 0.0 - - - - - - -
24/10:30am 19.7 S 14 17 1020.5 - 0.0 - - - - - - -
24/10:00am 19.2 SSW 14 19 1020.6 - 0.0 - - - - - - -
24/09:30am 19.1 SSW 13 16 1020.7 - 0.0 - - - - - - -
24/09:00am 17.9 S 12 16 1020.7 - 4.0 - - - - - - -
24/08:30am 18.1 SSW 13 16 1020.6 - 4.0 - - - - - - -
24/08:00am 17.3 SSW 11 14 1020.6 - 4.0 - - - - - - -
24/07:30am 16.6 SSW 14 17 1020.4 - 4.0 - - - - - - -

Other Formats:

Comma delimited format used in spreadsheet applications
http://www.bom.gov.au/fwo/IDW60701/IDW60701.94644.axf

JavaScript Object Notation format (JSON) in row-major order
http://www.bom.gov.au/fwo/IDW60701/IDW60701.94644.json